sensor_id;sensor_type;location;lat;lon;timestamp;temperature;humidity
16313;DHT22;8265;52.622;13.296;2023-10-19T00:04:18;5.90;77.30
16313;DHT22;8265;52.622;13.296;2023-10-19T00:09:39;5.90;76.80
16313;DHT22;8265;52.622;13.296;2023-10-19T00:15:00;5.90;77.10
16313;DHT22;8265;52.622;13.296;2023-10-19T00:20:21;5.90;76.80
16313;DHT22;8265;52.622;13.296;2023-10-19T00:25:42;5.90;76.80
16313;DHT22;8265;52.622;13.296;2023-10-19T00:31:03;5.90;76.60
16313;DHT22;8265;52.622;13.296;2023-10-19T00:36:24;5.90;76.70
16313;DHT22;8265;52.622;13.296;2023-10-19T00:41:45;5.90;76.80
16313;DHT22;8265;52.622;13.296;2023-10-19T00:47:06;5.90;76.20
16313;DHT22;8265;52.622;13.296;2023-10-19T00:52:27;5.90;76.50
16313;DHT22;8265;52.622;13.296;2023-10-19T00:57:48;5.90;76.50
16313;DHT22;8265;52.622;13.296;2023-10-19T01:03:10;5.80;76.90
16313;DHT22;8265;52.622;13.296;2023-10-19T01:08:30;5.80;77.20
16313;DHT22;8265;52.622;13.296;2023-10-19T01:13:51;5.80;77.20
16313;DHT22;8265;52.622;13.296;2023-10-19T01:19:12;5.80;77.00
16313;DHT22;8265;52.622;13.296;2023-10-19T01:24:33;5.80;77.00
16313;DHT22;8265;52.622;13.296;2023-10-19T01:29:53;5.80;77.10
16313;DHT22;8265;52.622;13.296;2023-10-19T01:35:14;5.80;77.00
16313;DHT22;8265;52.622;13.296;2023-10-19T01:40:35;5.70;77.40
16313;DHT22;8265;52.622;13.296;2023-10-19T01:45:57;5.80;76.80
16313;DHT22;8265;52.622;13.296;2023-10-19T01:51:18;5.70;77.40
16313;DHT22;8265;52.622;13.296;2023-10-19T01:56:38;5.70;77.90
16313;DHT22;8265;52.622;13.296;2023-10-19T02:01:59;5.70;77.50
16313;DHT22;8265;52.622;13.296;2023-10-19T02:07:20;5.80;77.10
16313;DHT22;8265;52.622;13.296;2023-10-19T02:12:41;5.70;77.40
16313;DHT22;8265;52.622;13.296;2023-10-19T02:18:03;5.70;77.30
16313;DHT22;8265;52.622;13.296;2023-10-19T02:23:23;5.80;77.20
16313;DHT22;8265;52.622;13.296;2023-10-19T02:28:45;5.80;78.00
16313;DHT22;8265;52.622;13.296;2023-10-19T02:34:08;5.90;76.90
16313;DHT22;8265;52.622;13.296;2023-10-19T02:39:26;5.90;77.00
16313;DHT22;8265;52.622;13.296;2023-10-19T02:44:47;6.00;76.90
16313;DHT22;8265;52.622;13.296;2023-10-19T02:50:08;6.00;76.70
16313;DHT22;8265;52.622;13.296;2023-10-19T02:55:30;6.00;77.10
16313;DHT22;8265;52.622;13.296;2023-10-19T03:00:50;6.00;77.10
16313;DHT22;8265;52.622;13.296;2023-10-19T03:06:11;6.00;77.50
16313;DHT22;8265;52.622;13.296;2023-10-19T03:11:32;6.00;77.20
16313;DHT22;8265;52.622;13.296;2023-10-19T03:16:53;6.00;77.20
16313;DHT22;8265;52.622;13.296;2023-10-19T03:22:14;6.00;76.60
16313;DHT22;8265;52.622;13.296;2023-10-19T03:27:35;6.00;77.10
16313;DHT22;8265;52.622;13.296;2023-10-19T03:32:56;6.00;77.20
16313;DHT22;8265;52.622;13.296;2023-10-19T03:38:17;6.00;77.40
16313;DHT22;8265;52.622;13.296;2023-10-19T03:43:38;6.00;77.50
16313;DHT22;8265;52.622;13.296;2023-10-19T03:49:00;6.00;76.90
16313;DHT22;8265;52.622;13.296;2023-10-19T03:54:20;6.00;77.10
16313;DHT22;8265;52.622;13.296;2023-10-19T03:59:41;6.00;77.40
16313;DHT22;8265;52.622;13.296;2023-10-19T04:05:03;6.00;77.50
16313;DHT22;8265;52.622;13.296;2023-10-19T04:10:24;5.90;78.00
16313;DHT22;8265;52.622;13.296;2023-10-19T04:15:44;5.90;77.30
16313;DHT22;8265;52.622;13.296;2023-10-19T04:21:05;5.90;77.60
16313;DHT22;8265;52.622;13.296;2023-10-19T04:26:26;5.90;77.80
16313;DHT22;8265;52.622;13.296;2023-10-19T04:31:47;5.90;77.90
16313;DHT22;8265;52.622;13.296;2023-10-19T04:37:08;5.90;77.50
16313;DHT22;8265;52.622;13.296;2023-10-19T04:42:29;5.90;77.80
16313;DHT22;8265;52.622;13.296;2023-10-19T04:47:51;5.90;77.70
16313;DHT22;8265;52.622;13.296;2023-10-19T04:53:11;5.90;77.50
16313;DHT22;8265;52.622;13.296;2023-10-19T04:58:32;5.90;77.30
16313;DHT22;8265;52.622;13.296;2023-10-19T05:03:53;5.90;77.40
16313;DHT22;8265;52.622;13.296;2023-10-19T05:09:14;5.90;77.20
16313;DHT22;8265;52.622;13.296;2023-10-19T05:14:35;6.00;77.40
16313;DHT22;8265;52.622;13.296;2023-10-19T05:19:57;6.00;77.10
16313;DHT22;8265;52.622;13.296;2023-10-19T05:25:17;5.90;77.20
16313;DHT22;8265;52.622;13.296;2023-10-19T05:30:38;6.00;77.60
16313;DHT22;8265;52.622;13.296;2023-10-19T05:35:59;6.00;77.50
16313;DHT22;8265;52.622;13.296;2023-10-19T05:41:20;6.00;78.00
16313;DHT22;8265;52.622;13.296;2023-10-19T05:46:41;5.90;77.90
16313;DHT22;8265;52.622;13.296;2023-10-19T05:52:03;5.80;80.20
16313;DHT22;8265;52.622;13.296;2023-10-19T05:57:23;5.70;81.60
16313;DHT22;8265;52.622;13.296;2023-10-19T06:02:45;5.70;82.00
16313;DHT22;8265;52.622;13.296;2023-10-19T06:08:05;5.70;81.60
16313;DHT22;8265;52.622;13.296;2023-10-19T06:13:26;5.60;82.40
16313;DHT22;8265;52.622;13.296;2023-10-19T06:18:47;5.60;81.80
16313;DHT22;8265;52.622;13.296;2023-10-19T06:24:08;5.60;83.50
16313;DHT22;8265;52.622;13.296;2023-10-19T06:29:29;5.60;83.60
16313;DHT22;8265;52.622;13.296;2023-10-19T06:34:50;5.50;84.00
16313;DHT22;8265;52.622;13.296;2023-10-19T06:40:12;5.50;85.60
16313;DHT22;8265;52.622;13.296;2023-10-19T06:45:32;5.50;86.20
16313;DHT22;8265;52.622;13.296;2023-10-19T06:50:53;5.50;85.40
16313;DHT22;8265;52.622;13.296;2023-10-19T06:56:14;5.50;85.40
16313;DHT22;8265;52.622;13.296;2023-10-19T07:01:35;5.50;85.10
16313;DHT22;8265;52.622;13.296;2023-10-19T07:06:56;5.70;84.70
16313;DHT22;8265;52.622;13.296;2023-10-19T07:12:17;5.60;85.30
16313;DHT22;8265;52.622;13.296;2023-10-19T07:17:38;5.70;85.00
16313;DHT22;8265;52.622;13.296;2023-10-19T07:22:59;5.80;85.30
16313;DHT22;8265;52.622;13.296;2023-10-19T07:28:20;5.90;84.50
16313;DHT22;8265;52.622;13.296;2023-10-19T07:33:41;6.00;83.70
16313;DHT22;8265;52.622;13.296;2023-10-19T07:39:02;5.90;84.90
16313;DHT22;8265;52.622;13.296;2023-10-19T07:44:23;6.00;84.30
16313;DHT22;8265;52.622;13.296;2023-10-19T07:49:44;6.20;83.40
16313;DHT22;8265;52.622;13.296;2023-10-19T07:55:05;6.20;83.80
16313;DHT22;8265;52.622;13.296;2023-10-19T08:00:26;6.30;83.80
16313;DHT22;8265;52.622;13.296;2023-10-19T08:05:47;6.40;82.70
16313;DHT22;8265;52.622;13.296;2023-10-19T08:11:08;6.60;81.50
16313;DHT22;8265;52.622;13.296;2023-10-19T08:16:29;6.50;81.80
16313;DHT22;8265;52.622;13.296;2023-10-19T08:21:50;6.60;81.20
16313;DHT22;8265;52.622;13.296;2023-10-19T08:27:11;6.70;81.10
16313;DHT22;8265;52.622;13.296;2023-10-19T08:32:32;6.70;80.80
16313;DHT22;8265;52.622;13.296;2023-10-19T08:37:53;6.80;80.00
16313;DHT22;8265;52.622;13.296;2023-10-19T08:43:14;6.80;80.20
16313;DHT22;8265;52.622;13.296;2023-10-19T08:48:35;6.80;80.40
16313;DHT22;8265;52.622;13.296;2023-10-19T08:53:56;6.80;79.70
16313;DHT22;8265;52.622;13.296;2023-10-19T08:59:17;6.90;79.20
16313;DHT22;8265;52.622;13.296;2023-10-19T09:04:41;7.00;79.00
16313;DHT22;8265;52.622;13.296;2023-10-19T09:09:59;7.00;78.70
16313;DHT22;8265;52.622;13.296;2023-10-19T09:15:23;7.00;78.80
16313;DHT22;8265;52.622;13.296;2023-10-19T09:20:41;7.00;79.40
16313;DHT22;8265;52.622;13.296;2023-10-19T09:26:02;7.00;78.70
16313;DHT22;8265;52.622;13.296;2023-10-19T09:31:23;7.20;78.50
16313;DHT22;8265;52.622;13.296;2023-10-19T09:36:44;7.20;77.60
16313;DHT22;8265;52.622;13.296;2023-10-19T09:42:11;7.20;77.90
16313;DHT22;8265;52.622;13.296;2023-10-19T09:47:29;7.20;77.50
16313;DHT22;8265;52.622;13.296;2023-10-19T09:52:47;7.20;77.60
16313;DHT22;8265;52.622;13.296;2023-10-19T09:58:17;7.20;78.50
16313;DHT22;8265;52.622;13.296;2023-10-19T10:08:50;7.40;79.20
16313;DHT22;8265;52.622;13.296;2023-10-19T10:14:19;7.50;78.50
16313;DHT22;8265;52.622;13.296;2023-10-19T10:19:31;7.50;78.70
16313;DHT22;8265;52.622;13.296;2023-10-19T10:24:53;7.60;78.50
16313;DHT22;8265;52.622;13.296;2023-10-19T10:30:13;7.70;78.40
16313;DHT22;8265;52.622;13.296;2023-10-19T10:40:55;7.70;78.90
16313;DHT22;8265;52.622;13.296;2023-10-19T10:46:16;7.80;78.90
16313;DHT22;8265;52.622;13.296;2023-10-19T10:51:39;7.60;77.80
16313;DHT22;8265;52.622;13.296;2023-10-19T10:56:58;7.60;79.00
16313;DHT22;8265;52.622;13.296;2023-10-19T11:02:20;7.40;80.30
16313;DHT22;8265;52.622;13.296;2023-10-19T11:07:41;7.30;81.20
16313;DHT22;8265;52.622;13.296;2023-10-19T11:13:09;7.20;82.50
16313;DHT22;8265;52.622;13.296;2023-10-19T11:18:38;7.20;80.70
16313;DHT22;8265;52.622;13.296;2023-10-19T11:23:47;7.20;80.80
16313;DHT22;8265;52.622;13.296;2023-10-19T11:29:04;7.20;80.50
16313;DHT22;8265;52.622;13.296;2023-10-19T11:34:26;7.20;80.00
16313;DHT22;8265;52.622;13.296;2023-10-19T11:39:46;7.20;80.70
16313;DHT22;8265;52.622;13.296;2023-10-19T11:45:08;7.20;81.90
16313;DHT22;8265;52.622;13.296;2023-10-19T11:50:31;7.20;82.50
16313;DHT22;8265;52.622;13.296;2023-10-19T11:55:49;7.10;84.10
16313;DHT22;8265;52.622;13.296;2023-10-19T12:01:10;7.20;84.70
16313;DHT22;8265;52.622;13.296;2023-10-19T12:06:31;7.20;84.20
16313;DHT22;8265;52.622;13.296;2023-10-19T12:11:52;7.00;86.40
16313;DHT22;8265;52.622;13.296;2023-10-19T12:17:13;6.90;87.90
16313;DHT22;8265;52.622;13.296;2023-10-19T12:22:34;6.80;88.30
16313;DHT22;8265;52.622;13.296;2023-10-19T12:27:58;6.70;89.00
16313;DHT22;8265;52.622;13.296;2023-10-19T12:33:16;6.60;90.80
16313;DHT22;8265;52.622;13.296;2023-10-19T12:38:37;6.70;90.80
16313;DHT22;8265;52.622;13.296;2023-10-19T12:43:58;6.70;90.90
16313;DHT22;8265;52.622;13.296;2023-10-19T12:49:19;6.70;90.60
16313;DHT22;8265;52.622;13.296;2023-10-19T12:54:40;6.60;91.80
16313;DHT22;8265;52.622;13.296;2023-10-19T13:00:01;6.50;92.10
16313;DHT22;8265;52.622;13.296;2023-10-19T13:05:22;6.50;92.80
16313;DHT22;8265;52.622;13.296;2023-10-19T13:10:44;6.50;92.90
16313;DHT22;8265;52.622;13.296;2023-10-19T13:16:04;6.60;93.00
16313;DHT22;8265;52.622;13.296;2023-10-19T13:21:25;6.70;93.10
16313;DHT22;8265;52.622;13.296;2023-10-19T13:26:47;6.70;92.40
16313;DHT22;8265;52.622;13.296;2023-10-19T13:32:07;6.70;92.20
16313;DHT22;8265;52.622;13.296;2023-10-19T13:37:28;6.90;91.30
16313;DHT22;8265;52.622;13.296;2023-10-19T13:42:49;6.90;90.90
16313;DHT22;8265;52.622;13.296;2023-10-19T13:48:11;6.70;90.70
16313;DHT22;8265;52.622;13.296;2023-10-19T13:53:31;6.70;91.40
16313;DHT22;8265;52.622;13.296;2023-10-19T13:58:52;6.70;91.10
16313;DHT22;8265;52.622;13.296;2023-10-19T14:04:13;6.70;91.70
16313;DHT22;8265;52.622;13.296;2023-10-19T14:09:34;6.70;90.90
16313;DHT22;8265;52.622;13.296;2023-10-19T14:14:55;6.70;91.00
16313;DHT22;8265;52.622;13.296;2023-10-19T14:20:17;6.70;91.20
16313;DHT22;8265;52.622;13.296;2023-10-19T14:25:37;6.70;91.10
16313;DHT22;8265;52.622;13.296;2023-10-19T14:30:58;6.60;92.40
16313;DHT22;8265;52.622;13.296;2023-10-19T14:36:19;6.50;92.30
16313;DHT22;8265;52.622;13.296;2023-10-19T14:41:40;6.50;93.20
16313;DHT22;8265;52.622;13.296;2023-10-19T14:47:01;6.50;93.70
16313;DHT22;8265;52.622;13.296;2023-10-19T14:52:22;6.40;93.30
16313;DHT22;8265;52.622;13.296;2023-10-19T14:57:44;6.40;93.90
16313;DHT22;8265;52.622;13.296;2023-10-19T15:03:05;6.40;94.00
16313;DHT22;8265;52.622;13.296;2023-10-19T15:08:25;6.40;94.20
16313;DHT22;8265;52.622;13.296;2023-10-19T15:13:46;6.40;93.80
16313;DHT22;8265;52.622;13.296;2023-10-19T15:19:07;6.40;94.00
16313;DHT22;8265;52.622;13.296;2023-10-19T15:24:28;6.40;94.10
16313;DHT22;8265;52.622;13.296;2023-10-19T15:29:49;6.40;93.70
16313;DHT22;8265;52.622;13.296;2023-10-19T15:35:11;6.40;93.70
16313;DHT22;8265;52.622;13.296;2023-10-19T15:40:31;6.40;94.40
16313;DHT22;8265;52.622;13.296;2023-10-19T15:45:52;6.50;94.10
16313;DHT22;8265;52.622;13.296;2023-10-19T15:51:13;6.50;94.10
16313;DHT22;8265;52.622;13.296;2023-10-19T15:56:34;6.40;94.40
16313;DHT22;8265;52.622;13.296;2023-10-19T16:01:55;6.40;94.20
16313;DHT22;8265;52.622;13.296;2023-10-19T16:07:16;6.40;94.70
16313;DHT22;8265;52.622;13.296;2023-10-19T16:12:41;6.40;95.20
16313;DHT22;8265;52.622;13.296;2023-10-19T16:17:58;6.40;95.10
16313;DHT22;8265;52.622;13.296;2023-10-19T16:23:19;6.40;95.40
16313;DHT22;8265;52.622;13.296;2023-10-19T16:28:40;6.50;95.20
16313;DHT22;8265;52.622;13.296;2023-10-19T16:34:01;6.50;95.30
16313;DHT22;8265;52.622;13.296;2023-10-19T16:39:22;6.50;95.30
16313;DHT22;8265;52.622;13.296;2023-10-19T16:44:43;6.50;95.40
16313;DHT22;8265;52.622;13.296;2023-10-19T16:50:05;6.50;95.40
16313;DHT22;8265;52.622;13.296;2023-10-19T16:55:25;6.50;95.50
16313;DHT22;8265;52.622;13.296;2023-10-19T17:00:46;6.50;95.80
16313;DHT22;8265;52.622;13.296;2023-10-19T17:06:07;6.50;95.70
16313;DHT22;8265;52.622;13.296;2023-10-19T17:11:28;6.50;95.90
16313;DHT22;8265;52.622;13.296;2023-10-19T17:16:49;6.50;96.00
16313;DHT22;8265;52.622;13.296;2023-10-19T17:22:10;6.60;95.60
16313;DHT22;8265;52.622;13.296;2023-10-19T17:27:31;6.50;95.80
16313;DHT22;8265;52.622;13.296;2023-10-19T17:32:52;6.50;95.70
16313;DHT22;8265;52.622;13.296;2023-10-19T17:38:13;6.50;96.20
16313;DHT22;8265;52.622;13.296;2023-10-19T17:43:34;6.50;96.40
16313;DHT22;8265;52.622;13.296;2023-10-19T17:48:55;6.50;96.30
16313;DHT22;8265;52.622;13.296;2023-10-19T17:54:16;6.50;96.50
16313;DHT22;8265;52.622;13.296;2023-10-19T17:59:37;6.50;96.40
16313;DHT22;8265;52.622;13.296;2023-10-19T18:04:58;6.50;96.40
16313;DHT22;8265;52.622;13.296;2023-10-19T18:10:19;6.50;96.50
16313;DHT22;8265;52.622;13.296;2023-10-19T18:15:40;6.50;96.50
16313;DHT22;8265;52.622;13.296;2023-10-19T18:21:10;6.50;96.60
16313;DHT22;8265;52.622;13.296;2023-10-19T18:26:22;6.50;96.60
16313;DHT22;8265;52.622;13.296;2023-10-19T18:31:43;6.50;96.80
16313;DHT22;8265;52.622;13.296;2023-10-19T18:37:04;6.50;96.70
16313;DHT22;8265;52.622;13.296;2023-10-19T18:42:25;6.50;96.90
16313;DHT22;8265;52.622;13.296;2023-10-19T18:47:46;6.50;96.90
16313;DHT22;8265;52.622;13.296;2023-10-19T18:53:07;6.50;96.70
16313;DHT22;8265;52.622;13.296;2023-10-19T18:58:28;6.50;97.10
16313;DHT22;8265;52.622;13.296;2023-10-19T19:03:49;6.50;97.00
16313;DHT22;8265;52.622;13.296;2023-10-19T19:09:10;6.40;97.10
16313;DHT22;8265;52.622;13.296;2023-10-19T19:14:31;6.40;97.30
16313;DHT22;8265;52.622;13.296;2023-10-19T19:19:52;6.50;97.40
16313;DHT22;8265;52.622;13.296;2023-10-19T19:25:13;6.50;97.40
16313;DHT22;8265;52.622;13.296;2023-10-19T19:30:35;6.50;97.20
16313;DHT22;8265;52.622;13.296;2023-10-19T19:35:55;6.50;97.10
16313;DHT22;8265;52.622;13.296;2023-10-19T19:41:16;6.50;97.10
16313;DHT22;8265;52.622;13.296;2023-10-19T19:46:37;6.40;96.90
16313;DHT22;8265;52.622;13.296;2023-10-19T19:51:58;6.40;97.20
16313;DHT22;8265;52.622;13.296;2023-10-19T19:57:19;6.40;97.30
16313;DHT22;8265;52.622;13.296;2023-10-19T20:02:40;6.40;97.20
16313;DHT22;8265;52.622;13.296;2023-10-19T20:08:01;6.40;97.30
16313;DHT22;8265;52.622;13.296;2023-10-19T20:13:22;6.40;97.40
16313;DHT22;8265;52.622;13.296;2023-10-19T20:18:43;6.40;97.30
16313;DHT22;8265;52.622;13.296;2023-10-19T20:24:04;6.30;97.20
16313;DHT22;8265;52.622;13.296;2023-10-19T20:29:25;6.40;97.20
16313;DHT22;8265;52.622;13.296;2023-10-19T20:34:46;6.30;97.20
16313;DHT22;8265;52.622;13.296;2023-10-19T20:40:07;6.30;97.20
16313;DHT22;8265;52.622;13.296;2023-10-19T20:45:28;6.30;97.20
16313;DHT22;8265;52.622;13.296;2023-10-19T20:50:49;6.30;97.00
16313;DHT22;8265;52.622;13.296;2023-10-19T20:56:10;6.30;97.20
16313;DHT22;8265;52.622;13.296;2023-10-19T21:01:31;6.30;96.80
16313;DHT22;8265;52.622;13.296;2023-10-19T21:06:52;6.20;96.90
16313;DHT22;8265;52.622;13.296;2023-10-19T21:12:13;6.30;97.10
16313;DHT22;8265;52.622;13.296;2023-10-19T21:17:34;6.20;97.10
16313;DHT22;8265;52.622;13.296;2023-10-19T21:22:55;6.20;97.20
16313;DHT22;8265;52.622;13.296;2023-10-19T21:28:16;6.20;97.50
16313;DHT22;8265;52.622;13.296;2023-10-19T21:33:37;6.20;97.50
16313;DHT22;8265;52.622;13.296;2023-10-19T21:38:58;6.20;97.10
16313;DHT22;8265;52.622;13.296;2023-10-19T21:44:19;6.20;96.80
16313;DHT22;8265;52.622;13.296;2023-10-19T21:49:40;6.20;96.70
16313;DHT22;8265;52.622;13.296;2023-10-19T21:55:01;6.20;96.80
16313;DHT22;8265;52.622;13.296;2023-10-19T22:00:22;6.20;96.80
16313;DHT22;8265;52.622;13.296;2023-10-19T22:05:43;6.20;96.70
16313;DHT22;8265;52.622;13.296;2023-10-19T22:11:04;6.20;96.60
16313;DHT22;8265;52.622;13.296;2023-10-19T22:16:25;6.20;97.00
16313;DHT22;8265;52.622;13.296;2023-10-19T22:21:46;6.20;97.10
16313;DHT22;8265;52.622;13.296;2023-10-19T22:27:07;6.10;97.60
16313;DHT22;8265;52.622;13.296;2023-10-19T22:32:28;6.20;97.50
16313;DHT22;8265;52.622;13.296;2023-10-19T22:37:49;6.10;97.60
16313;DHT22;8265;52.622;13.296;2023-10-19T22:43:10;6.10;97.60
16313;DHT22;8265;52.622;13.296;2023-10-19T22:48:31;6.20;97.50
16313;DHT22;8265;52.622;13.296;2023-10-19T22:53:52;6.20;97.70
16313;DHT22;8265;52.622;13.296;2023-10-19T22:59:13;6.20;97.70
16313;DHT22;8265;52.622;13.296;2023-10-19T23:04:34;6.20;97.60
16313;DHT22;8265;52.622;13.296;2023-10-19T23:09:55;6.10;97.60
16313;DHT22;8265;52.622;13.296;2023-10-19T23:15:16;6.10;97.70
16313;DHT22;8265;52.622;13.296;2023-10-19T23:20:37;6.10;97.90
16313;DHT22;8265;52.622;13.296;2023-10-19T23:25:58;6.00;98.00
16313;DHT22;8265;52.622;13.296;2023-10-19T23:31:19;6.00;98.30
16313;DHT22;8265;52.622;13.296;2023-10-19T23:36:40;6.00;98.60
16313;DHT22;8265;52.622;13.296;2023-10-19T23:42:01;6.00;98.60
16313;DHT22;8265;52.622;13.296;2023-10-19T23:47:22;6.00;98.50
16313;DHT22;8265;52.622;13.296;2023-10-19T23:52:43;6.00;98.70
16313;DHT22;8265;52.622;13.296;2023-10-19T23:58:04;6.00;98.80
